עמוד ראשי
METAR-TAF:

METAR-TAF

שדות תעופה :

טהיטי, פולינזיה הצרפתית

קו רוחב: 17-33S, קו אורך: 149-37W, גובה: 2מטר

תצפית מזג אוויר נוכחית

הדו"ח נערך לפני 19דקות, בשעה 08:00 UTC
רוח 1קשר מכיוון מזרח/דרום-מזרח
טמפרטורת 27 צלסיוס
לחות 84%
לחץ 1013 hPa
ראות 10 קילומטר או יותר
מעט עננים בגובה 2000רגל

METAR: NTAA 290800Z 12001KT 9999 FEW020 27/24 Q1013 NOSIG

זמן: 22:19 (08:19 UTC)

תחזית

הדו"ח נערך לפני 3 שעות ו 19דקות, בשעה 05:00 UTC
תחזית בתוקף מ 29 ב 06 UTC עד 01 ב 12 UTC
רוח 5קשר עם כיוונים משתנים
ראות 10 קילומטר או יותר
מעט עננים בגובה 2000רגל
עננים פזורים בגובה 5000רגל
זמנית מ -
29 ב 20 UTC עד 01 ב 04 UTC
רוח 18קשר מכיוון צפון-מזרח
הסתברות 30% :
זמנית מ -
29 ב 22 UTC עד 01 ב 03 UTC
רוח 18קשר מכיוון צפון-מזרח עם משבים עד 28קשר
ראות: 3000מטר
מעט עננים בגובה 2000רגל , קומולונימבוס.
עננים בינוניים בגובה 4000רגל
ממטרי גשם,

TAF: NTAA 290500Z 2906/0112 VRB05KT 9999 FEW020 SCT050 TEMPO 2920/0104 05018KT PROB30 TEMPO 2922/0103 04018G28KT 3000 SHRA FEW020CB BKN040

תצפיות ותחזיות מזג אוויר לגבי יותר מ- 4,000 שדות תעופה ברחבי העולם. דוחות METAR ו- TAF.

התחנות הזמינות מסומנות בנקודות צהובות ואדומות על גבי המפה.

העבר את העכבר לנקודה הצבעונית על מנת לראות את שם התחנה.

לאחר מכן, לחץ כדי לראות את תוכן ואת תחזיות מזג האוויר.

כדי לשנות את המפה: לחץ על הכפתורים הירוקים עם הפלוס השחור כדי להתקרב; על הכפתור הירוק עם המקף כדי להתרחק; או בחיצים הירוקים למפות סמוכות.


METAR-TAF: